Time;durP1;ratioP1;P1;durP2;ratioP2;P2;SDS_P1;SDS_P2;PMS_P1;PMS_P2;Temp;Humidity;BMP_temperature;BMP_pressure;BME280_temperature;BME280_humidity;BME280_pressure;Samples;Min_cycle;Max_cycle;Signal;HPM_P1;HPM_P2
2021/11/14 00:02:06;;;;;;;37.03;17.20;;;;;;;9.65;100.00;101645.81;5269470;28;20032;-74
2021/11/14 00:04:36;;;;;;;38.05;16.73;;;;;;;9.65;100.00;101643.16;5283639;28;20035;-75
2021/11/14 00:07:07;;;;;;;38.92;17.25;;;;;;;9.63;100.00;101645.09;5283387;28;20024;-75
2021/11/14 00:09:38;;;;;;;34.95;17.13;;;;;;;9.63;100.00;101642.41;5282862;28;20028;-75
2021/11/14 00:12:09;;;;;;;38.85;18.25;;;;;;;9.62;100.00;101643.41;5283160;28;20072;-74
2021/11/14 00:14:40;;;;;;;35.33;17.13;;;;;;;9.60;100.00;101644.41;5282778;28;20035;-74
2021/11/14 00:17:10;;;;;;;40.78;18.63;;;;;;;9.60;100.00;101641.72;5282949;28;20028;-75
2021/11/14 00:19:41;;;;;;;38.40;18.70;;;;;;;9.68;100.00;101645.53;5282956;28;20140;-75
2021/11/14 00:22:11;;;;;;;41.95;20.10;;;;;;;9.68;100.00;101649.03;5260939;28;20263;-75
2021/11/14 00:24:42;;;;;;;35.67;19.70;;;;;;;9.66;100.00;101642.16;5282256;28;20050;-75
2021/11/14 00:27:12;;;;;;;40.78;20.27;;;;;;;9.64;100.00;101641.44;5283311;28;20016;-75
2021/11/14 00:29:43;;;;;;;45.08;20.95;;;;;;;9.67;100.00;101652.72;5283193;28;20024;-74
2021/11/14 00:32:13;;;;;;;50.45;22.42;;;;;;;9.73;100.00;101648.63;5283796;28;20438;-74
2021/11/14 00:34:44;;;;;;;54.95;22.92;;;;;;;9.73;100.00;101640.59;5283606;28;20053;-74
2021/11/14 00:37:14;;;;;;;50.47;22.58;;;;;;;9.70;100.00;101649.78;5282986;28;20066;-74
2021/11/14 00:39:46;;;;;;;52.35;23.42;;;;;;;9.68;100.00;101648.19;5282991;28;20408;-74
2021/11/14 00:42:16;;;;;;;53.72;23.33;;;;;;;9.64;100.00;101652.16;5283086;28;20031;-74
2021/11/14 00:44:47;;;;;;;56.38;24.00;;;;;;;9.63;100.00;101653.97;5283473;28;20084;-74
2021/11/14 00:47:17;;;;;;;50.00;23.10;;;;;;;9.65;100.00;101657.38;5282807;28;20380;-73
2021/11/14 00:49:49;;;;;;;51.20;24.60;;;;;;;9.63;100.00;101659.34;5282698;28;20035;-73
2021/11/14 00:52:19;;;;;;;52.40;24.42;;;;;;;9.60;100.00;101655.13;5283056;28;20387;-74
2021/11/14 00:54:50;;;;;;;66.43;25.70;;;;;;;9.60;100.00;101654.28;5282616;28;20023;-74
2021/11/14 00:57:20;;;;;;;50.17;24.65;;;;;;;9.61;100.00;101658.66;5282218;28;20027;-74
2021/11/14 00:59:51;;;;;;;47.50;23.70;;;;;;;9.66;100.00;101663.59;5282757;28;20024;-74
2021/11/14 01:02:22;;;;;;;59.65;25.88;;;;;;;9.60;100.00;101662.31;5282871;28;20030;-74
2021/11/14 01:04:52;;;;;;;56.65;25.50;;;;;;;9.59;100.00;101656.13;5283438;28;20016;-74
2021/11/14 01:07:23;;;;;;;64.55;27.58;;;;;;;9.59;100.00;101660.63;5283139;28;20032;-74
2021/11/14 01:09:53;;;;;;;67.78;28.67;;;;;;;9.59;100.00;101663.31;5282961;28;20126;-75
2021/11/14 01:12:24;;;;;;;62.72;27.50;;;;;;;9.62;100.00;101670.19;5283414;28;20023;-74
2021/11/14 01:14:55;;;;;;;70.45;29.85;;;;;;;9.57;100.00;101667.94;5282326;28;20114;-74
2021/11/14 01:17:25;;;;;;;66.05;30.10;;;;;;;9.56;100.00;101669.78;5282418;28;20027;-74
2021/11/14 01:19:57;;;;;;;72.43;29.58;;;;;;;9.49;100.00;101676.69;5282859;28;20388;-74
2021/11/14 01:22:27;;;;;;;83.00;32.67;;;;;;;9.46;100.00;101671.59;5282694;28;20028;-74
2021/11/14 01:24:58;;;;;;;73.65;32.22;;;;;;;9.46;100.00;101687.66;5283078;28;20030;-74
2021/11/14 01:27:28;;;;;;;81.97;34.72;;;;;;;9.44;100.00;101686.97;5282121;28;20076;-74
2021/11/14 01:29:59;;;;;;;83.78;34.10;;;;;;;9.42;100.00;101686.25;5282753;28;20018;-75
2021/11/14 01:32:30;;;;;;;88.00;33.90;;;;;;;9.42;100.00;101683.56;5282668;28;20111;-74
2021/11/14 01:35:00;;;;;;;87.03;34.70;;;;;;;9.41;100.00;101678.34;5282912;27;20400;-74
2021/11/14 01:37:31;;;;;;;95.07;35.33;;;;;;;9.41;100.00;101689.06;5286230;28;20136;-75
2021/11/14 01:40:04;;;;;;;76.85;32.35;;;;;;;9.39;100.00;101678.50;5286562;28;20484;-74
2021/11/14 01:42:34;;;;;;;86.50;35.05;;;;;;;9.39;100.00;101685.66;5286621;28;20327;-74
2021/11/14 01:45:05;;;;;;;87.03;34.88;;;;;;;9.37;100.00;101688.50;5265335;28;20036;-74
2021/11/14 01:47:44;;;;;;;103.13;37.40;;;;;;;9.35;100.00;101693.16;5286248;28;20045;-74
2021/11/14 01:50:17;;;;;;;98.88;39.35;;;;;;;9.33;100.00;101687.06;5286411;28;20035;-74
2021/11/14 01:52:49;;;;;;;91.97;36.95;;;;;;;9.32;100.00;101691.56;5286559;28;20020;-75
2021/11/14 01:55:24;;;;;;;92.78;37.70;;;;;;;9.34;100.00;101699.50;5285702;28;20023;-75
2021/11/14 01:57:56;;;;;;;105.30;39.92;;;;;;;9.35;100.00;101695.81;5286016;28;20480;-74
2021/11/14 02:00:34;;;;;;;108.05;38.60;;;;;;;9.36;100.00;101699.34;5286123;28;20100;-74
2021/11/14 02:03:04;;;;;;;106.13;38.80;;;;;;;9.35;100.00;101706.53;5286072;28;20020;-74
2021/11/14 02:05:35;;;;;;;106.38;39.05;;;;;;;9.37;100.00;101706.41;5286322;28;20475;-75
2021/11/14 02:08:14;;;;;;;132.25;42.33;;;;;;;9.38;100.00;101710.75;5282445;28;20130;-74
2021/11/14 02:10:46;;;;;;;118.70;41.35;;;;;;;9.39;100.00;101707.97;5285750;28;20354;-74
2021/11/14 02:13:18;;;;;;;126.68;44.33;;;;;;;9.39;100.00;101705.28;5285511;28;20031;-74
2021/11/14 02:15:49;;;;;;;145.18;47.72;;;;;;;9.40;100.00;101709.66;5285843;28;20270;-74
2021/11/14 02:18:20;;;;;;;165.43;49.10;;;;;;;9.39;100.00;101710.66;5285684;28;20407;-74
2021/11/14 02:20:52;;;;;;;156.95;49.20;;;;;;;9.40;100.00;101719.53;5286032;28;20442;-73
2021/11/14 02:23:24;;;;;;;165.15;49.15;;;;;;;9.39;100.00;101718.69;5285990;28;20020;-73
2021/11/14 02:25:54;;;;;;;166.30;49.67;;;;;;;9.41;100.00;101730.09;5285750;28;20031;-73
2021/11/14 02:28:25;;;;;;;173.20;50.97;;;;;;;9.41;100.00;101727.41;5285971;28;20144;-73
2021/11/14 02:30:58;;;;;;;171.23;52.33;;;;;;;9.42;100.00;101737.13;5285984;28;20436;-75
2021/11/14 02:33:29;;;;;;;157.75;48.40;;;;;;;9.43;100.00;101738.81;5285677;28;20118;-74
2021/11/14 02:36:05;;;;;;;162.23;51.08;;;;;;;9.42;100.00;101734.44;5262792;28;20121;-73
2021/11/14 02:38:37;;;;;;;169.57;50.78;;;;;;;9.42;100.00;101737.13;5278968;28;20473;-73
2021/11/14 02:41:10;;;;;;;160.25;49.75;;;;;;;9.42;100.00;101741.66;5285556;28;20027;-74
2021/11/14 02:43:43;;;;;;;183.65;52.90;;;;;;;9.42;100.00;101744.31;5285404;28;20287;-73
2021/11/14 02:46:14;;;;;;;160.32;50.47;;;;;;;9.41;100.00;101739.97;5284867;28;20015;-74
2021/11/14 02:48:45;;;;;;;166.13;50.45;;;;;;;9.41;100.00;101743.47;5284115;28;20148;-74
2021/11/14 02:51:29;;;;;;;161.00;49.40;;;;;;;9.40;100.00;101744.47;5285309;28;20421;-74
2021/11/14 02:54:01;;;;;;;155.43;48.15;;;;;;;9.39;100.00;101744.59;5250572;28;20019;-74
2021/11/14 02:56:32;;;;;;;133.90;44.28;;;;;;;9.39;100.00;101742.78;5285657;28;20075;-73
2021/11/14 02:59:04;;;;;;;158.68;48.58;;;;;;;9.39;100.00;101749.94;5284956;28;20015;-73
2021/11/14 03:01:40;;;;;;;145.40;48.63;;;;;;;9.34;100.00;101766.44;5285550;28;20111;-73
2021/11/14 03:04:17;;;;;;;178.15;51.08;;;;;;;9.31;100.00;101758.66;5263169;28;20511;-73
2021/11/14 03:06:50;;;;;;;146.05;49.33;;;;;;;9.29;100.00;101757.97;5284643;28;20032;-74
2021/11/14 03:09:21;;;;;;;144.38;49.53;;;;;;;9.27;100.00;101758.09;5284245;28;20019;-75
2021/11/14 03:11:55;;;;;;;158.85;49.22;;;;;;;9.26;100.00;101755.56;5284706;28;20055;-74
2021/11/14 03:14:27;;;;;;;159.00;50.60;;;;;;;9.26;100.00;101759.06;5264356;28;20509;-73
2021/11/14 03:16:58;;;;;;;161.90;50.00;;;;;;;9.24;100.00;101768.25;5285703;28;20476;-73
2021/11/14 03:19:29;;;;;;;145.52;46.67;;;;;;;9.23;100.00;101763.84;5284330;28;20027;-74
2021/11/14 03:21:59;;;;;;;145.00;47.35;;;;;;;9.21;100.00;101760.47;5285211;28;20500;-73
2021/11/14 03:24:30;;;;;;;137.45;46.42;;;;;;;9.25;100.00;101767.25;5284746;28;20511;-74
2021/11/14 03:27:00;;;;;;;124.70;44.60;;;;;;;9.30;100.00;101773.06;5285129;28;20039;-73
2021/11/14 03:29:31;;;;;;;141.43;44.72;;;;;;;9.29;100.00;101780.25;5284219;28;20024;-73
2021/11/14 03:32:02;;;;;;;119.05;41.75;;;;;;;9.26;100.00;101774.28;5284534;28;20032;-73
2021/11/14 03:34:33;;;;;;;127.43;43.28;;;;;;;9.24;100.00;101771.75;5283815;28;20106;-73
2021/11/14 03:37:17;;;;;;;134.57;43.38;;;;;;;9.23;100.00;101775.41;5284628;28;20486;-73
2021/11/14 03:39:48;;;;;;;121.68;41.95;;;;;;;9.22;100.00;101770.19;5284896;28;20469;-73
2021/11/14 03:42:18;;;;;;;160.88;50.47;;;;;;;9.21;100.00;101774.69;5284927;28;20036;-74
2021/11/14 03:44:50;;;;;;;127.40;46.55;;;;;;;9.22;100.00;101780.91;5284490;28;20122;-74
2021/11/14 03:47:21;;;;;;;128.93;44.40;;;;;;;9.19;100.00;101779.34;5283906;28;20114;-74
2021/11/14 03:49:51;;;;;;;142.07;46.42;;;;;;;9.17;100.00;101783.13;5284178;28;20103;-74
2021/11/14 03:52:22;;;;;;;131.55;46.58;;;;;;;9.17;100.00;101793.84;5283926;28;20344;-74
2021/11/14 03:54:53;;;;;;;134.15;42.83;;;;;;;9.15;100.00;101798.50;5283988;28;20072;-74
2021/11/14 03:57:25;;;;;;;128.65;44.28;;;;;;;9.12;100.00;101794.25;5283269;28;20422;-74
2021/11/14 03:59:55;;;;;;;145.68;45.03;;;;;;;9.13;100.00;101805.78;5283537;28;20104;-75
2021/11/14 04:02:26;;;;;;;128.88;42.92;;;;;;;9.11;100.00;101805.09;5283887;28;20113;-73
2021/11/14 04:04:57;;;;;;;151.52;47.15;;;;;;;9.08;100.00;101807.03;5283855;28;20024;-74
2021/11/14 04:07:29;;;;;;;129.73;46.28;;;;;;;9.06;100.00;101811.69;5283373;28;20020;-73
2021/11/14 04:10:00;;;;;;;134.30;45.58;;;;;;;9.05;100.00;101809.16;5283693;28;20023;-73
2021/11/14 04:12:31;;;;;;;146.45;43.80;;;;;;;9.03;100.00;101811.94;5284000;28;20511;-73
2021/11/14 04:15:02;;;;;;;158.15;46.75;;;;;;;9.03;100.00;101819.97;5283736;28;20460;-74
2021/11/14 04:17:34;;;;;;;134.20;43.22;;;;;;;9.04;100.00;101816.34;5284183;28;20023;-74
2021/11/14 04:20:07;;;;;;;134.65;43.72;;;;;;;9.02;100.00;101820.13;5284406;28;20074;-74
2021/11/14 04:22:39;;;;;;;135.63;42.70;;;;;;;9.01;100.00;101821.09;5284142;28;20027;-73
2021/11/14 04:25:10;;;;;;;129.18;41.03;;;;;;;9.02;100.00;101818.28;5284185;28;20034;-73
2021/11/14 04:27:41;;;;;;;165.80;45.42;;;;;;;9.00;100.00;101825.59;5283487;28;20027;-74
2021/11/14 04:30:12;;;;;;;135.20;42.33;;;;;;;8.98;100.00;101819.53;5283563;28;20038;-74
2021/11/14 04:32:44;;;;;;;142.82;43.70;;;;;;;8.97;100.00;101830.38;5261385;28;20390;-74
2021/11/14 04:35:15;;;;;;;140.23;42.88;;;;;;;8.96;100.00;101834.88;5275133;28;20033;-73
2021/11/14 04:37:48;;;;;;;137.38;43.83;;;;;;;8.94;100.00;101834.16;5283633;28;20144;-73
2021/11/14 04:40:26;;;;;;;133.60;43.40;;;;;;;8.93;100.00;101837.78;5283367;28;20031;-74
2021/11/14 04:42:56;;;;;;;122.32;42.22;;;;;;;8.92;100.00;101833.44;5283857;28;20027;-74
2021/11/14 04:45:27;;;;;;;140.18;43.72;;;;;;;8.89;100.00;101836.38;5283098;28;20042;-73
2021/11/14 04:47:57;;;;;;;134.98;42.33;;;;;;;8.89;100.00;101840.91;5283082;28;20632;-74
2021/11/14 04:50:28;;;;;;;124.65;40.00;;;;;;;8.87;100.00;101835.66;5283508;28;20438;-73
2021/11/14 04:52:59;;;;;;;134.52;41.22;;;;;;;8.86;100.00;101842.00;5283946;28;20138;-73
2021/11/14 04:55:31;;;;;;;131.95;40.22;;;;;;;8.85;100.00;101839.47;5283407;28;20051;-74
2021/11/14 04:58:04;;;;;;;132.88;40.33;;;;;;;8.82;100.00;101844.06;5265097;28;20447;-73
2021/11/14 05:00:39;;;;;;;122.80;37.90;;;;;;;8.82;100.00;101853.94;5283647;28;20507;-74
2021/11/14 05:03:11;;;;;;;145.00;38.92;;;;;;;8.80;100.00;101847.88;5284011;28;20122;-73
2021/11/14 05:05:42;;;;;;;135.68;39.33;;;;;;;8.77;100.00;101851.63;5283453;28;20031;-74
2021/11/14 05:08:13;;;;;;;125.95;39.20;;;;;;;8.75;100.00;101856.28;5282417;28;20015;-74
2021/11/14 05:10:46;;;;;;;130.77;41.15;;;;;;;8.74;100.00;101851.06;5284833;28;20027;-74
2021/11/14 05:13:19;;;;;;;142.10;38.92;;;;;;;8.73;100.00;101857.38;5287397;28;20019;-74
2021/11/14 05:15:49;;;;;;;137.77;38.40;;;;;;;8.71;100.00;101852.16;5265135;28;20031;-74
2021/11/14 05:18:20;;;;;;;142.93;40.08;;;;;;;8.70;100.00;101860.34;5287005;28;20027;-74
2021/11/14 05:20:50;;;;;;;136.27;38.42;;;;;;;8.70;100.00;101860.34;5286741;28;20538;-75
2021/11/14 05:23:21;;;;;;;138.30;37.67;;;;;;;8.70;100.00;101860.34;5287094;28;20030;-74
2021/11/14 05:25:51;;;;;;;133.23;37.45;;;;;;;8.67;100.00;101856.06;5287267;28;20015;-75
2021/11/14 05:28:22;;;;;;;129.45;36.65;;;;;;;8.66;100.00;101857.06;5286638;28;20119;-76
2021/11/14 05:30:52;;;;;;;138.30;37.65;;;;;;;8.66;100.00;101859.72;5286941;28;20027;-75
2021/11/14 05:33:23;;;;;;;139.98;37.90;;;;;;;8.65;100.00;101857.19;5287390;28;20028;-74
2021/11/14 05:35:54;;;;;;;124.30;37.58;;;;;;;8.64;100.00;101858.19;5287311;28;20076;-76
2021/11/14 05:38:25;;;;;;;126.40;34.85;;;;;;;8.62;100.00;101865.47;5286983;28;20028;-76
2021/11/14 05:40:55;;;;;;;130.23;38.28;;;;;;;8.62;100.00;101865.47;5269358;28;20129;-75
2021/11/14 05:43:26;;;;;;;134.25;36.78;;;;;;;8.61;100.00;101871.81;5269075;28;20446;-74
2021/11/14 05:45:56;;;;;;;141.50;37.67;;;;;;;8.60;100.00;101868.28;5286885;28;20028;-74
2021/11/14 05:48:27;;;;;;;147.80;39.05;;;;;;;8.58;100.00;101856.84;5286114;28;20026;-74
2021/11/14 05:50:59;;;;;;;138.68;37.55;;;;;;;8.59;100.00;101873.78;5286960;28;20034;-74
2021/11/14 05:53:29;;;;;;;136.82;37.03;;;;;;;8.57;100.00;101873.88;5286736;28;20024;-74
2021/11/14 05:56:00;;;;;;;153.73;37.80;;;;;;;8.57;100.00;101880.06;5286436;28;20100;-73
2021/11/14 05:58:39;;;;;;;145.80;38.72;;;;;;;8.56;100.00;101882.88;5285976;28;20053;-73
2021/11/14 06:03:53;;;;;;;144.50;39.78;;;;;;;8.54;100.00;101891.03;5286817;28;20374;-73
2021/11/14 06:06:23;;;;;;;149.25;38.75;;;;;;;8.56;100.00;101893.59;5286084;28;20019;-74
2021/11/14 06:08:54;;;;;;;142.45;38.92;;;;;;;8.55;100.00;101900.75;5251208;28;20061;-75
2021/11/14 06:11:26;;;;;;;144.23;36.90;;;;;;;8.56;100.00;101902.44;5268198;28;20288;-75
2021/11/14 06:13:57;;;;;;;148.00;40.25;;;;;;;8.58;100.00;101910.34;5286438;28;20400;-75
2021/11/14 06:16:27;;;;;;;154.98;38.40;;;;;;;8.58;100.00;101907.66;5286551;28;20024;-75
2021/11/14 06:18:58;;;;;;;160.48;41.28;;;;;;;8.59;100.00;101909.38;5246734;28;20063;-73
2021/11/14 06:21:28;;;;;;;158.07;40.30;;;;;;;8.60;100.00;101910.22;5286027;28;20085;-73
2021/11/14 06:23:59;;;;;;;145.35;39.10;;;;;;;8.59;100.00;101917.41;5286478;28;20030;-74
2021/11/14 06:26:29;;;;;;;137.90;37.42;;;;;;;8.57;100.00;101917.50;5286359;28;20208;-74
2021/11/14 06:29:00;;;;;;;155.63;40.33;;;;;;;8.57;100.00;101924.69;5285763;28;20114;-74
2021/11/14 06:31:30;;;;;;;133.80;38.40;;;;;;;8.57;100.00;101932.72;5285920;28;20034;-74
2021/11/14 06:34:01;;;;;;;148.15;39.05;;;;;;;8.57;100.00;101927.38;5267963;28;20054;-74
2021/11/14 06:36:33;;;;;;;148.85;40.95;;;;;;;8.59;100.00;101932.63;5286392;28;20440;-74
2021/11/14 06:39:03;;;;;;;150.48;41.08;;;;;;;8.59;100.00;101937.97;5285550;28;20383;-73
2021/11/14 06:41:34;;;;;;;158.38;41.38;;;;;;;8.60;100.00;101936.97;5285846;28;20027;-75
2021/11/14 06:44:04;;;;;;;155.20;42.35;;;;;;;8.59;100.00;101941.47;5285446;28;20023;-75
2021/11/14 06:46:35;;;;;;;159.00;40.35;;;;;;;8.60;100.00;101947.69;5285903;28;20024;-75
2021/11/14 06:49:06;;;;;;;155.02;41.20;;;;;;;8.61;100.00;101950.22;5285307;28;20027;-74
2021/11/14 06:51:36;;;;;;;168.50;43.85;;;;;;;8.59;100.00;101957.53;5285830;28;20496;-74
2021/11/14 06:54:07;;;;;;;169.50;41.85;;;;;;;8.61;100.00;101960.91;5286561;28;20047;-74
2021/11/14 06:56:37;;;;;;;179.07;45.28;;;;;;;8.62;100.00;101965.28;5285783;28;20500;-75
2021/11/14 06:59:08;;;;;;;164.05;40.53;;;;;;;8.63;100.00;101966.13;5285619;28;20034;-75
2021/11/14 07:01:38;;;;;;;166.40;43.25;;;;;;;8.64;100.00;101973.22;5281163;28;20027;-74
2021/11/14 07:04:09;;;;;;;176.23;45.30;;;;;;;8.64;100.00;101978.56;5285500;28;20024;-74
2021/11/14 07:06:40;;;;;;;167.15;42.97;;;;;;;8.65;100.00;101977.56;5285060;28;20507;-74
2021/11/14 07:09:10;;;;;;;167.55;41.05;;;;;;;8.66;100.00;101976.59;5284869;28;20024;-74
2021/11/14 07:11:41;;;;;;;161.18;41.60;;;;;;;8.67;100.00;101978.28;5285068;28;20053;-74
2021/11/14 07:14:12;;;;;;;151.98;41.15;;;;;;;8.66;100.00;101985.47;5267487;28;20074;-74
2021/11/14 07:16:42;;;;;;;161.70;41.00;;;;;;;8.67;100.00;101989.00;5285482;28;20113;-75
2021/11/14 07:19:13;;;;;;;164.38;42.22;;;;;;;8.68;100.00;101988.00;5284269;28;20080;-74
2021/11/14 07:21:44;;;;;;;162.23;42.33;;;;;;;8.69;100.00;101989.72;5285614;28;20313;-73
2021/11/14 07:24:16;;;;;;;163.48;42.17;;;;;;;8.71;100.00;101987.75;5285614;28;20106;-74
2021/11/14 07:26:46;;;;;;;169.60;41.45;;;;;;;8.71;100.00;101987.75;5286286;28;20023;-74
2021/11/14 07:29:17;;;;;;;184.80;43.92;;;;;;;8.72;100.00;101989.47;5286153;28;20015;-74
2021/11/14 07:31:47;;;;;;;157.10;41.88;;;;;;;8.74;100.00;101998.22;5285573;28;20384;-73
2021/11/14 07:34:18;;;;;;;178.18;44.17;;;;;;;8.74;100.00;102008.94;5285267;28;20031;-74
2021/11/14 07:36:49;;;;;;;172.48;44.22;;;;;;;8.74;100.00;102009.78;5287863;28;20023;-74
2021/11/14 07:39:19;;;;;;;170.80;43.05;;;;;;;8.77;100.00;102020.22;5285236;28;20097;-74
2021/11/14 07:41:50;;;;;;;172.75;45.05;;;;;;;8.78;100.00;102013.03;5284936;28;20027;-74
2021/11/14 07:44:20;;;;;;;175.80;46.17;;;;;;;8.79;100.00;102022.78;5265255;28;20673;-74
2021/11/14 07:46:51;;;;;;;175.82;46.63;;;;;;;8.81;100.00;102024.34;5283260;28;20024;-73
2021/11/14 07:49:21;;;;;;;181.93;47.25;;;;;;;8.81;100.00;102027.00;5283623;28;20425;-72
2021/11/14 07:51:52;;;;;;;169.73;44.30;;;;;;;8.84;100.00;102030.44;5284029;28;20015;-72
2021/11/14 07:54:23;;;;;;;168.30;44.08;;;;;;;8.83;100.00;102040.25;5283849;28;20385;-72
2021/11/14 07:56:53;;;;;;;165.65;44.13;;;;;;;8.86;100.00;102044.53;5283297;28;20093;-72
2021/11/14 07:59:24;;;;;;;175.90;43.00;;;;;;;8.85;100.00;102043.69;5283211;28;20031;-72
2021/11/14 08:01:54;;;;;;;175.55;43.53;;;;;;;8.86;100.00;102047.19;5283505;28;20019;-73
2021/11/14 08:04:25;;;;;;;167.65;44.47;;;;;;;8.84;100.00;102047.34;5283397;28;20066;-72
2021/11/14 08:06:57;;;;;;;168.15;45.00;;;;;;;8.87;100.00;102049.75;5283512;28;20026;-73
2021/11/14 08:09:27;;;;;;;187.20;46.10;;;;;;;8.89;100.00;102053.16;5283233;28;20106;-72
2021/11/14 08:11:58;;;;;;;176.02;46.28;;;;;;;8.89;100.00;102057.66;5283842;28;20560;-73
2021/11/14 08:14:28;;;;;;;190.73;49.45;;;;;;;8.89;100.00;102061.19;5283930;28;20039;-72
2021/11/14 08:16:59;;;;;;;188.48;44.83;;;;;;;8.89;100.00;102055.84;5283583;28;20070;-72
2021/11/14 08:19:29;;;;;;;179.88;46.70;;;;;;;8.92;100.00;102060.91;5283070;28;20052;-72
2021/11/14 08:22:00;;;;;;;184.90;48.17;;;;;;;8.94;100.00;102068.84;5283512;28;20024;-72
2021/11/14 08:24:30;;;;;;;174.15;44.38;;;;;;;8.95;100.00;102070.53;5282464;28;20027;-72
2021/11/14 08:27:01;;;;;;;193.02;47.83;;;;;;;8.94;100.00;102069.69;5283078;28;20165;-72
2021/11/14 08:29:32;;;;;;;192.75;47.45;;;;;;;8.95;100.00;102067.84;5282712;28;20039;-72
2021/11/14 08:32:03;;;;;;;177.93;44.28;;;;;;;8.95;100.00;102071.38;5283025;28;20072;-72
2021/11/14 08:34:33;;;;;;;171.20;43.17;;;;;;;8.96;100.00;102083.78;5260300;28;20492;-72
2021/11/14 08:37:04;;;;;;;180.32;47.20;;;;;;;8.98;100.00;102081.81;5261852;28;20073;-72
2021/11/14 08:39:35;;;;;;;175.20;44.75;;;;;;;9.00;100.00;102089.75;5260219;28;20036;-72
2021/11/14 08:42:06;;;;;;;170.65;44.10;;;;;;;9.00;100.00;102087.91;5277972;28;20042;-72
2021/11/14 08:44:37;;;;;;;194.77;46.83;;;;;;;9.02;100.00;102096.66;5283023;28;20081;-72
2021/11/14 08:47:08;;;;;;;165.13;42.42;;;;;;;9.02;100.00;102104.69;5286965;28;20027;-72
2021/11/14 08:49:39;;;;;;;171.57;46.83;;;;;;;9.02;100.00;102095.81;5287959;28;20047;-72
2021/11/14 08:52:11;;;;;;;163.43;45.20;;;;;;;9.04;100.00;102099.22;5287976;28;20392;-72
2021/11/14 08:54:42;;;;;;;171.38;40.47;;;;;;;9.06;100.00;102103.47;5269155;28;20020;-73
2021/11/14 08:57:17;;;;;;;166.23;41.70;;;;;;;9.08;100.00;102100.66;5287556;28;20015;-72
2021/11/14 08:59:49;;;;;;;154.07;43.75;;;;;;;9.13;100.00;102102.94;5287230;28;20481;-72
2021/11/14 09:02:22;;;;;;;157.60;41.65;;;;;;;9.15;100.00;102106.38;5287702;28;20030;-72
2021/11/14 09:04:53;;;;;;;155.20;40.63;;;;;;;9.18;100.00;102106.09;5287430;28;20062;-72
2021/11/14 09:07:23;;;;;;;160.98;41.10;;;;;;;9.17;100.00;102107.94;5287561;28;20028;-72
2021/11/14 09:09:54;;;;;;;144.60;40.20;;;;;;;9.17;100.00;102117.78;5287021;28;20494;-72
2021/11/14 09:12:25;;;;;;;150.73;40.65;;;;;;;9.20;100.00;102125.59;5287173;28;20024;-72
2021/11/14 09:14:56;;;;;;;161.52;42.72;;;;;;;9.22;100.00;102127.16;5286632;28;20027;-72
2021/11/14 09:17:26;;;;;;;149.70;40.20;;;;;;;9.27;100.00;102135.66;5287067;28;20035;-72
2021/11/14 09:19:57;;;;;;;155.30;41.13;;;;;;;9.30;100.00;102134.56;5287017;28;20032;-72
2021/11/14 09:22:27;;;;;;;150.93;42.72;;;;;;;9.31;100.00;102137.09;5286663;28;20026;-72
2021/11/14 09:24:58;;;;;;;139.63;41.28;;;;;;;9.37;100.00;102134.91;5286994;28;20024;-72
2021/11/14 09:27:29;;;;;;;141.15;40.92;;;;;;;9.45;100.00;102138.66;5286911;28;20019;-72
2021/11/14 09:29:59;;;;;;;144.07;39.83;;;;;;;9.46;100.00;102129.63;5287596;28;20023;-72
2021/11/14 09:32:30;;;;;;;146.07;38.83;;;;;;;9.45;100.00;102146.69;5287365;28;20029;-72
2021/11/14 09:35:00;;;;;;;131.48;40.80;;;;;;;9.41;100.00;102144.38;5286633;28;20033;-73
2021/11/14 09:37:31;;;;;;;125.32;38.97;;;;;;;9.37;100.00;102146.47;5286518;28;20027;-72
2021/11/14 09:40:03;;;;;;;143.88;40.33;;;;;;;9.29;100.00;102148.94;5287084;28;20057;-72
2021/11/14 09:42:35;;;;;;;133.02;39.30;;;;;;;9.26;100.00;102160.72;5287017;28;20023;-73
2021/11/14 09:45:08;;;;;;;144.63;38.83;;;;;;;9.27;100.00;102157.06;5286748;28;20046;-72
2021/11/14 09:47:40;;;;;;;146.60;39.90;;;;;;;9.26;100.00;102160.72;5267549;28;20051;-72
2021/11/14 09:50:11;;;;;;;147.88;41.38;;;;;;;9.28;100.00;102164.13;5286695;28;20102;-72
2021/11/14 09:52:41;;;;;;;140.73;39.65;;;;;;;9.25;100.00;102168.91;5286706;28;20122;-72
2021/11/14 09:55:12;;;;;;;145.40;41.10;;;;;;;9.28;100.00;102164.13;5286451;28;20070;-72
2021/11/14 09:57:43;;;;;;;146.07;40.90;;;;;;;9.31;100.00;102171.91;5284630;28;20113;-72
2021/11/14 10:00:17;;;;;;;135.98;39.22;;;;;;;9.32;100.00;102175.44;5285616;28;20023;-72
2021/11/14 10:02:47;;;;;;;154.88;42.20;;;;;;;9.34;100.00;102173.50;5285980;28;20494;-72
2021/11/14 10:05:18;;;;;;;150.63;43.53;;;;;;;9.36;100.00;102178.72;5285813;28;20027;-72
2021/11/14 10:07:57;;;;;;;157.65;42.95;;;;;;;9.31;100.00;102190.66;5285684;28;20098;-72
2021/11/14 10:10:30;;;;;;;148.60;42.13;;;;;;;9.29;100.00;102186.44;5273336;28;20384;-72
2021/11/14 10:13:13;;;;;;;146.60;43.17;;;;;;;9.26;100.00;102184.00;5286344;28;20080;-73
2021/11/14 10:15:46;;;;;;;155.20;44.25;;;;;;;9.23;100.00;102178.88;5285826;28;20419;-73
2021/11/14 10:18:19;;;;;;;140.93;43.20;;;;;;;9.21;100.00;102192.41;5267735;28;20020;-72
2021/11/14 10:20:51;;;;;;;153.63;46.15;;;;;;;9.21;100.00;102195.06;5285099;28;20034;-72
2021/11/14 10:23:21;;;;;;;151.82;44.25;;;;;;;9.21;100.00;102194.22;5285459;28;20051;-72
2021/11/14 10:25:54;;;;;;;151.63;42.78;;;;;;;9.19;100.00;102191.69;5285417;28;20065;-72
2021/11/14 10:28:28;;;;;;;138.27;41.55;;;;;;;9.21;100.00;102200.44;5262688;28;20135;-72
2021/11/14 10:30:59;;;;;;;134.02;40.55;;;;;;;9.17;100.00;102203.47;5281629;28;20015;-72
2021/11/14 10:33:29;;;;;;;129.00;42.45;;;;;;;9.19;100.00;102206.91;5285446;28;20028;-73
2021/11/14 10:36:00;;;;;;;116.70;38.40;;;;;;;9.18;100.00;102205.16;5284145;28;20511;-72
2021/11/14 10:38:35;;;;;;;128.13;40.28;;;;;;;9.20;100.00;102206.75;5284953;28;20031;-72
2021/11/14 10:41:10;;;;;;;109.88;38.22;;;;;;;9.19;100.00;102207.75;5271846;28;20039;-72
2021/11/14 10:43:42;;;;;;;101.85;34.90;;;;;;;9.20;100.00;102212.13;5284695;28;20061;-72
2021/11/14 10:46:17;;;;;;;114.60;36.55;;;;;;;9.23;100.00;102205.66;5285883;28;20024;-72
2021/11/14 10:48:48;;;;;;;112.35;36.22;;;;;;;9.26;100.00;102216.97;5284911;28;20020;-72
2021/11/14 10:51:19;;;;;;;109.18;35.60;;;;;;;9.31;100.00;102214.78;5285826;28;20077;-72
2021/11/14 10:53:50;;;;;;;112.15;37.95;;;;;;;9.30;100.00;102217.59;5285360;28;20031;-72
2021/11/14 10:56:20;;;;;;;99.43;36.15;;;;;;;9.34;100.00;102219.88;5284880;28;20550;-72
2021/11/14 10:58:53;;;;;;;100.80;35.65;;;;;;;9.32;100.00;102223.66;5284343;28;20080;-72
2021/11/14 11:01:24;;;;;;;99.43;35.50;;;;;;;9.36;100.00;102238.50;5284318;28;20027;-72
2021/11/14 11:03:55;;;;;;;103.47;36.50;;;;;;;9.41;100.00;102230.09;5285127;28;20027;-72
2021/11/14 11:06:28;;;;;;;98.03;35.78;;;;;;;9.42;100.00;102229.13;5284460;28;20473;-72
2021/11/14 11:09:00;;;;;;;92.88;34.00;;;;;;;9.40;100.00;102226.56;5283142;28;20043;-72
2021/11/14 11:11:42;;;;;;;93.72;34.50;;;;;;;9.40;100.00;102233.75;5284363;28;20027;-72
2021/11/14 11:14:25;;;;;;;93.45;34.53;;;;;;;9.39;100.00;102232.91;5284282;28;20051;-72
2021/11/14 11:16:59;;;;;;;94.05;34.00;;;;;;;9.37;100.00;102229.47;5265906;28;20361;-73
2021/11/14 11:19:30;;;;;;;105.80;34.80;;;;;;;9.35;100.00;102236.81;5283723;28;20035;-72
2021/11/14 11:22:04;;;;;;;96.38;33.38;;;;;;;9.32;100.00;102229.00;5284855;28;20019;-72
2021/11/14 11:24:34;;;;;;;91.65;32.60;;;;;;;9.32;100.00;102239.72;5284257;28;20024;-72